This is the latest recevied weather packets stored in our database for station/object KD5UMO-1. If no packets are shown the sender has not sent any weather packets the latest 1 day(s).
| Time | Temp. | Humidity | Pressure | Rain* | Wind** | Luminosity | Snow |
|---|---|---|---|---|---|---|---|
| 1778080573 | 12.78° C | 81% | 1015 hPa | 0 mm | - | 58 W/m² | - |
| 1778079663 | 12.22° C | 81% | 1014.5 hPa | 0 mm | - | 102 W/m² | - |
| 1778079360 | 12.78° C | 80% | 1015.2 hPa | 0 mm | - | 51 W/m² | - |
| 1778079057 | 12.78° C | 80% | 1014.9 hPa | 0 mm | - | 112 W/m² | - |
| 1778077847 | 12.22° C | 81% | 1015.3 hPa | 0 mm | - | 70 W/m² | - |
| 1778076638 | 12.22° C | 84% | 1014.3 hPa | 0 mm | - | 78 W/m² | - |
| 1778076335 | 12.22° C | 84% | 1014.5 hPa | 0 mm | - | 78 W/m² | - |
| 1778075425 | 11.67° C | 85% | 1014.2 hPa | 0 mm | - | 76 W/m² | - |
| 1778074515 | 11.67° C | 86% | 1014 hPa | 0 mm | - | 65 W/m² | - |
| 1778074212 | 11.67° C | 86% | 1013.9 hPa | 0 mm | - | 52 W/m² | - |
| 1778073909 | 11.67° C | 86% | 1013.8 hPa | 0 mm | - | 30 W/m² | - |
| 1778073000 | 11.67° C | 85% | 1013.8 hPa | 0 mm | - | 33 W/m² | - |
| 1778072394 | 11.67° C | 84% | 1013.5 hPa | 0 mm | - | 32 W/m² | - |
| 1778071487 | 11.67° C | 83% | 1013.4 hPa | 0 mm | - | 23 W/m² | - |
| 1778071185 | 11.67° C | 83% | 1013.5 hPa | 0 mm | - | 7 W/m² | - |
| 1778070883 | 11.67° C | 83% | 1013.4 hPa | 0 mm | - | 16 W/m² | - |
| 1778070277 | 11.67° C | 83% | 1013.2 hPa | 0 mm | - | 13 W/m² | - |
| 1778069369 | 12.22° C | 83% | 1013.1 hPa | 0 mm | - | 10 W/m² | - |
| 1778066949 | 12.22° C | 80% | 1012.3 hPa | 0 mm | - | 0 W/m² | - |
| 1778066647 | 12.78° C | 79% | 1012.6 hPa | 0 mm | - | 0 W/m² | - |
| 1778066344 | 12.78° C | 79% | 1012.4 hPa | 0 mm | - | 0 W/m² | - |
| 1778065739 | 12.78° C | 78% | 1012.3 hPa | 0 mm | - | 0 W/m² | - |
| 1778064829 | 12.78° C | 77% | 1012 hPa | 0 mm | - | 0 W/m² | - |
| 1778064527 | 12.78° C | 77% | 1011.7 hPa | 0 mm | - | 0 W/m² | - |
| 1778063922 | 12.78° C | 76% | 1011.7 hPa | 0 mm | - | 0 W/m² | - |
* Rain latest hour (hover to see other rain measurements)
** Current wind speed in m/s (hover to see current wind gust speed)